sensor_id;sensor_type;location;lat;lon;timestamp;temperature;humidity
65478;SHT31;53678;39.642;22.430;2022-11-02T00:01:27;14.89;73.18
65478;SHT31;53678;39.642;22.430;2022-11-02T00:03:54;14.86;73.16
65478;SHT31;53678;39.642;22.430;2022-11-02T00:06:20;14.82;73.27
65478;SHT31;53678;39.642;22.430;2022-11-02T00:08:46;14.61;74.15
65478;SHT31;53678;39.642;22.430;2022-11-02T00:11:11;14.28;75.14
65478;SHT31;53678;39.642;22.430;2022-11-02T00:13:37;13.99;76.40
65478;SHT31;53678;39.642;22.430;2022-11-02T00:16:05;13.86;77.05
65478;SHT31;53678;39.642;22.430;2022-11-02T00:18:33;13.83;78.15
65478;SHT31;53678;39.642;22.430;2022-11-02T00:21:00;13.79;78.09
65478;SHT31;53678;39.642;22.430;2022-11-02T00:23:27;13.99;77.02
65478;SHT31;53678;39.642;22.430;2022-11-02T00:25:54;14.00;77.10
65478;SHT31;53678;39.642;22.430;2022-11-02T00:28:20;13.86;77.72
65478;SHT31;53678;39.642;22.430;2022-11-02T00:30:46;13.55;78.71
65478;SHT31;53678;39.642;22.430;2022-11-02T00:33:12;13.74;78.35
65478;SHT31;53678;39.642;22.430;2022-11-02T00:35:39;13.84;77.62
65478;SHT31;53678;39.642;22.430;2022-11-02T00:38:06;13.94;77.51
65478;SHT31;53678;39.642;22.430;2022-11-02T00:40:31;13.93;76.94
65478;SHT31;53678;39.642;22.430;2022-11-02T00:42:57;13.73;77.71
65478;SHT31;53678;39.642;22.430;2022-11-02T00:45:24;13.63;78.20
65478;SHT31;53678;39.642;22.430;2022-11-02T00:47:50;13.77;77.78
65478;SHT31;53678;39.642;22.430;2022-11-02T00:50:18;13.90;76.78
65478;SHT31;53678;39.642;22.430;2022-11-02T00:52:44;13.91;76.64
65478;SHT31;53678;39.642;22.430;2022-11-02T00:55:10;13.97;76.65
65478;SHT31;53678;39.642;22.430;2022-11-02T00:57:40;14.00;76.46
65478;SHT31;53678;39.642;22.430;2022-11-02T01:00:08;13.76;76.51
65478;SHT31;53678;39.642;22.430;2022-11-02T01:02:36;13.77;76.28
65478;SHT31;53678;39.642;22.430;2022-11-02T01:05:05;13.76;76.13
65478;SHT31;53678;39.642;22.430;2022-11-02T01:07:32;13.83;76.11
65478;SHT31;53678;39.642;22.430;2022-11-02T01:09:58;13.86;76.04
65478;SHT31;53678;39.642;22.430;2022-11-02T01:12:24;13.84;76.44
65478;SHT31;53678;39.642;22.430;2022-11-02T01:14:50;13.66;76.84
65478;SHT31;53678;39.642;22.430;2022-11-02T01:17:16;13.61;77.47
65478;SHT31;53678;39.642;22.430;2022-11-02T01:19:42;13.58;77.99
65478;SHT31;53678;39.642;22.430;2022-11-02T01:22:08;13.59;77.49
65478;SHT31;53678;39.642;22.430;2022-11-02T01:24:34;13.58;77.59
65478;SHT31;53678;39.642;22.430;2022-11-02T01:27:02;13.62;77.11
65478;SHT31;53678;39.642;22.430;2022-11-02T01:29:28;13.58;77.30
65478;SHT31;53678;39.642;22.430;2022-11-02T01:31:54;13.59;77.25
65478;SHT31;53678;39.642;22.430;2022-11-02T01:34:20;13.62;77.18
65478;SHT31;53678;39.642;22.430;2022-11-02T01:36:46;13.73;76.65
65478;SHT31;53678;39.642;22.430;2022-11-02T01:39:13;13.72;77.12
65478;SHT31;53678;39.642;22.430;2022-11-02T01:41:40;13.69;77.06
65478;SHT31;53678;39.642;22.430;2022-11-02T01:44:27;13.86;74.30
65478;SHT31;53678;39.642;22.430;2022-11-02T01:46:58;14.06;73.58
65478;SHT31;53678;39.642;22.430;2022-11-02T01:49:25;13.89;73.45
65478;SHT31;53678;39.642;22.430;2022-11-02T01:54:32;13.67;73.17
65478;SHT31;53678;39.642;22.430;2022-11-02T01:57:05;13.84;72.34
65478;SHT31;53678;39.642;22.430;2022-11-02T02:00:11;13.84;72.06
65478;SHT31;53678;39.642;22.430;2022-11-02T02:02:47;13.67;72.17
65478;SHT31;53678;39.642;22.430;2022-11-02T02:05:15;13.66;72.25
65478;SHT31;53678;39.642;22.430;2022-11-02T02:07:42;13.63;71.78
65478;SHT31;53678;39.642;22.430;2022-11-02T02:10:09;13.36;73.97
65478;SHT31;53678;39.642;22.430;2022-11-02T02:12:37;13.35;73.71
65478;SHT31;53678;39.642;22.430;2022-11-02T02:15:04;13.42;73.84
65478;SHT31;53678;39.642;22.430;2022-11-02T02:20:19;13.07;74.81
65478;SHT31;53678;39.642;22.430;2022-11-02T02:23:12;13.04;74.53
65478;SHT31;53678;39.642;22.430;2022-11-02T02:31:30;13.01;74.52
65478;SHT31;53678;39.642;22.430;2022-11-02T02:34:21;13.08;74.73
65478;SHT31;53678;39.642;22.430;2022-11-02T02:42:06;13.16;73.82
65478;SHT31;53678;39.642;22.430;2022-11-02T02:44:37;13.14;73.60
65478;SHT31;53678;39.642;22.430;2022-11-02T02:47:23;13.11;73.58
65478;SHT31;53678;39.642;22.430;2022-11-02T02:49:57;13.07;74.02
65478;SHT31;53678;39.642;22.430;2022-11-02T02:52:26;13.04;74.28
65478;SHT31;53678;39.642;22.430;2022-11-02T02:54:55;12.60;75.06
65478;SHT31;53678;39.642;22.430;2022-11-02T02:57:25;12.43;75.69
65478;SHT31;53678;39.642;22.430;2022-11-02T02:59:52;12.57;75.31
65478;SHT31;53678;39.642;22.430;2022-11-02T03:02:35;12.60;74.95
65478;SHT31;53678;39.642;22.430;2022-11-02T03:05:04;12.60;74.83
65478;SHT31;53678;39.642;22.430;2022-11-02T03:07:46;12.52;75.03
65478;SHT31;53678;39.642;22.430;2022-11-02T03:10:19;12.66;74.52
65478;SHT31;53678;39.642;22.430;2022-11-02T03:13:02;12.79;74.42
65478;SHT31;53678;39.642;22.430;2022-11-02T03:15:35;12.64;74.44
65478;SHT31;53678;39.642;22.430;2022-11-02T03:23:23;12.79;73.98
65478;SHT31;53678;39.642;22.430;2022-11-02T03:26:08;12.79;74.18
65478;SHT31;53678;39.642;22.430;2022-11-02T03:31:47;12.39;75.36
65478;SHT31;53678;39.642;22.430;2022-11-02T03:36:53;12.28;76.62
65478;SHT31;53678;39.642;22.430;2022-11-02T03:40:02;12.39;76.07
65478;SHT31;53678;39.642;22.430;2022-11-02T03:42:21;12.52;76.44
65478;SHT31;53678;39.642;22.430;2022-11-02T03:44:56;12.57;76.11
65478;SHT31;53678;39.642;22.430;2022-11-02T03:47:23;12.28;78.02
65478;SHT31;53678;39.642;22.430;2022-11-02T03:49:52;12.09;78.73
65478;SHT31;53678;39.642;22.430;2022-11-02T03:52:23;12.25;78.20
65478;SHT31;53678;39.642;22.430;2022-11-02T03:55:04;12.22;78.08
65478;SHT31;53678;39.642;22.430;2022-11-02T03:57:44;12.06;79.68
65478;SHT31;53678;39.642;22.430;2022-11-02T04:00:24;11.63;82.05
65478;SHT31;53678;39.642;22.430;2022-11-02T04:02:58;11.89;81.37
65478;SHT31;53678;39.642;22.430;2022-11-02T04:05:32;11.89;81.23
65478;SHT31;53678;39.642;22.430;2022-11-02T04:08:03;11.85;81.36
65478;SHT31;53678;39.642;22.430;2022-11-02T04:10:56;12.08;81.26
65478;SHT31;53678;39.642;22.430;2022-11-02T04:13:42;12.12;80.57
65478;SHT31;53678;39.642;22.430;2022-11-02T04:16:30;12.09;80.55
65478;SHT31;53678;39.642;22.430;2022-11-02T04:18:58;12.01;79.89
65478;SHT31;53678;39.642;22.430;2022-11-02T04:21:44;11.85;80.94
65478;SHT31;53678;39.642;22.430;2022-11-02T04:24:32;11.94;80.70
65478;SHT31;53678;39.642;22.430;2022-11-02T04:27:17;11.88;80.16
65478;SHT31;53678;39.642;22.430;2022-11-02T04:29:44;11.87;80.04
65478;SHT31;53678;39.642;22.430;2022-11-02T04:32:10;11.66;80.51
65478;SHT31;53678;39.642;22.430;2022-11-02T04:34:35;11.22;82.30
65478;SHT31;53678;39.642;22.430;2022-11-02T04:37:01;11.08;84.13
65478;SHT31;53678;39.642;22.430;2022-11-02T04:39:47;11.13;84.01
65478;SHT31;53678;39.642;22.430;2022-11-02T04:42:13;11.29;83.22
65478;SHT31;53678;39.642;22.430;2022-11-02T04:44:48;11.47;82.19
65478;SHT31;53678;39.642;22.430;2022-11-02T04:47:20;11.68;81.41
65478;SHT31;53678;39.642;22.430;2022-11-02T04:49:46;11.75;80.88
65478;SHT31;53678;39.642;22.430;2022-11-02T04:52:16;11.68;81.23
65478;SHT31;53678;39.642;22.430;2022-11-02T04:54:47;11.74;81.07
65478;SHT31;53678;39.642;22.430;2022-11-02T04:57:13;11.57;81.37
65478;SHT31;53678;39.642;22.430;2022-11-02T04:59:39;11.63;81.35
65478;SHT31;53678;39.642;22.430;2022-11-02T05:02:05;11.41;81.46
65478;SHT31;53678;39.642;22.430;2022-11-02T05:04:31;11.15;82.58
65478;SHT31;53678;39.642;22.430;2022-11-02T05:06:57;11.06;81.78
65478;SHT31;53678;39.642;22.430;2022-11-02T05:09:26;10.91;82.24
65478;SHT31;53678;39.642;22.430;2022-11-02T05:11:52;11.18;81.55
65478;SHT31;53678;39.642;22.430;2022-11-02T05:14:18;11.33;80.88
65478;SHT31;53678;39.642;22.430;2022-11-02T05:16:44;11.37;80.77
65478;SHT31;53678;39.642;22.430;2022-11-02T05:19:12;11.46;80.43
65478;SHT31;53678;39.642;22.430;2022-11-02T05:21:38;11.63;80.43
65478;SHT31;53678;39.642;22.430;2022-11-02T05:24:05;11.88;79.86
65478;SHT31;53678;39.642;22.430;2022-11-02T05:26:32;11.84;79.28
65478;SHT31;53678;39.642;22.430;2022-11-02T05:28:58;11.74;80.08
65478;SHT31;53678;39.642;22.430;2022-11-02T05:31:23;11.99;80.11
65478;SHT31;53678;39.642;22.430;2022-11-02T05:33:49;11.99;80.68
65478;SHT31;53678;39.642;22.430;2022-11-02T05:36:19;12.29;80.62
65478;SHT31;53678;39.642;22.430;2022-11-02T05:38:52;13.03;77.68
65478;SHT31;53678;39.642;22.430;2022-11-02T05:41:19;13.24;77.27
65478;SHT31;53678;39.642;22.430;2022-11-02T05:43:47;13.18;76.35
65478;SHT31;53678;39.642;22.430;2022-11-02T05:46:15;13.41;76.65
65478;SHT31;53678;39.642;22.430;2022-11-02T05:48:41;13.39;75.61
65478;SHT31;53678;39.642;22.430;2022-11-02T05:51:08;13.61;75.24
65478;SHT31;53678;39.642;22.430;2022-11-02T05:53:34;14.10;73.94
65478;SHT31;53678;39.642;22.430;2022-11-02T05:56:05;14.88;71.07
65478;SHT31;53678;39.642;22.430;2022-11-02T05:58:31;14.90;70.79
65478;SHT31;53678;39.642;22.430;2022-11-02T06:00:59;15.26;69.18
65478;SHT31;53678;39.642;22.430;2022-11-02T06:03:25;15.75;67.41
65478;SHT31;53678;39.642;22.430;2022-11-02T06:06:02;16.15;67.73
65478;SHT31;53678;39.642;22.430;2022-11-02T06:08:31;16.73;65.52
65478;SHT31;53678;39.642;22.430;2022-11-02T06:10:57;17.32;62.95
65478;SHT31;53678;39.642;22.430;2022-11-02T06:13:25;17.63;62.34
65478;SHT31;53678;39.642;22.430;2022-11-02T06:15:51;18.14;60.96
65478;SHT31;53678;39.642;22.430;2022-11-02T06:18:17;18.27;60.39
65478;SHT31;53678;39.642;22.430;2022-11-02T06:20:42;18.77;58.57
65478;SHT31;53678;39.642;22.430;2022-11-02T06:23:08;19.16;58.38
65478;SHT31;53678;39.642;22.430;2022-11-02T06:25:34;19.06;57.30
65478;SHT31;53678;39.642;22.430;2022-11-02T06:28:00;19.11;58.08
65478;SHT31;53678;39.642;22.430;2022-11-02T06:30:29;18.39;59.74
65478;SHT31;53678;39.642;22.430;2022-11-02T06:32:55;17.83;63.42
65478;SHT31;53678;39.642;22.430;2022-11-02T06:35:22;18.56;59.57
65478;SHT31;53678;39.642;22.430;2022-11-02T06:37:48;18.82;59.54
65478;SHT31;53678;39.642;22.430;2022-11-02T06:40:14;19.17;57.99
65478;SHT31;53678;39.642;22.430;2022-11-02T06:42:40;18.75;59.35
65478;SHT31;53678;39.642;22.430;2022-11-02T06:45:06;18.53;60.47
65478;SHT31;53678;39.642;22.430;2022-11-02T06:47:35;18.42;60.36
65478;SHT31;53678;39.642;22.430;2022-11-02T06:50:02;18.14;61.31
65478;SHT31;53678;39.642;22.430;2022-11-02T06:52:29;18.18;61.03
65478;SHT31;53678;39.642;22.430;2022-11-02T06:54:55;17.97;61.56
65478;SHT31;53678;39.642;22.430;2022-11-02T06:57:21;17.74;62.68
65478;SHT31;53678;39.642;22.430;2022-11-02T06:59:47;17.63;63.56
65478;SHT31;53678;39.642;22.430;2022-11-02T07:02:13;16.85;65.82
65478;SHT31;53678;39.642;22.430;2022-11-02T07:04:39;16.50;65.81
65478;SHT31;53678;39.642;22.430;2022-11-02T07:07:06;16.85;65.44
65478;SHT31;53678;39.642;22.430;2022-11-02T07:09:32;17.15;64.66
65478;SHT31;53678;39.642;22.430;2022-11-02T07:11:57;16.81;65.22
65478;SHT31;53678;39.642;22.430;2022-11-02T07:14:23;17.15;65.26
65478;SHT31;53678;39.642;22.430;2022-11-02T07:16:49;17.49;64.45
65478;SHT31;53678;39.642;22.430;2022-11-02T07:19:15;17.60;64.54
65478;SHT31;53678;39.642;22.430;2022-11-02T07:21:41;17.93;62.90
65478;SHT31;53678;39.642;22.430;2022-11-02T07:24:07;17.70;64.77
65478;SHT31;53678;39.642;22.430;2022-11-02T07:26:33;17.91;62.89
65478;SHT31;53678;39.642;22.430;2022-11-02T07:28:58;17.52;62.42
65478;SHT31;53678;39.642;22.430;2022-11-02T07:31:26;17.79;62.88
65478;SHT31;53678;39.642;22.430;2022-11-02T07:33:52;17.52;63.40
65478;SHT31;53678;39.642;22.430;2022-11-02T07:36:18;17.81;62.24
65478;SHT31;53678;39.642;22.430;2022-11-02T07:38:44;18.02;61.57
65478;SHT31;53678;39.642;22.430;2022-11-02T07:41:10;18.07;61.62
65478;SHT31;53678;39.642;22.430;2022-11-02T07:43:36;18.17;61.46
65478;SHT31;53678;39.642;22.430;2022-11-02T07:46:12;18.45;60.67
65478;SHT31;53678;39.642;22.430;2022-11-02T07:48:39;18.53;60.97
65478;SHT31;53678;39.642;22.430;2022-11-02T07:51:05;18.73;60.31
65478;SHT31;53678;39.642;22.430;2022-11-02T07:53:33;17.65;62.20
65478;SHT31;53678;39.642;22.430;2022-11-02T07:55:59;18.21;61.72
65478;SHT31;53678;39.642;22.430;2022-11-02T07:58:25;17.89;62.07
65478;SHT31;53678;39.642;22.430;2022-11-02T08:00:51;18.28;61.41
65478;SHT31;53678;39.642;22.430;2022-11-02T08:03:19;18.63;60.70
65478;SHT31;53678;39.642;22.430;2022-11-02T08:05:44;18.44;61.23
65478;SHT31;53678;39.642;22.430;2022-11-02T08:08:18;18.68;60.03
65478;SHT31;53678;39.642;22.430;2022-11-02T08:10:47;18.75;59.95
65478;SHT31;53678;39.642;22.430;2022-11-02T08:13:16;18.76;59.62
65478;SHT31;53678;39.642;22.430;2022-11-02T08:15:43;18.70;60.06
65478;SHT31;53678;39.642;22.430;2022-11-02T08:18:14;18.90;59.33
65478;SHT31;53678;39.642;22.430;2022-11-02T08:20:41;18.93;58.96
65478;SHT31;53678;39.642;22.430;2022-11-02T08:23:08;19.17;58.92
65478;SHT31;53678;39.642;22.430;2022-11-02T08:25:36;18.88;59.76
65478;SHT31;53678;39.642;22.430;2022-11-02T08:28:02;19.20;58.76
65478;SHT31;53678;39.642;22.430;2022-11-02T08:30:31;18.79;60.18
65478;SHT31;53678;39.642;22.430;2022-11-02T08:33:07;19.20;59.00
65478;SHT31;53678;39.642;22.430;2022-11-02T08:35:36;19.26;58.62
65478;SHT31;53678;39.642;22.430;2022-11-02T08:38:02;19.62;57.88
65478;SHT31;53678;39.642;22.430;2022-11-02T08:40:29;19.68;57.73
65478;SHT31;53678;39.642;22.430;2022-11-02T08:42:59;19.90;57.25
65478;SHT31;53678;39.642;22.430;2022-11-02T08:45:27;19.86;57.28
65478;SHT31;53678;39.642;22.430;2022-11-02T08:47:53;19.62;58.15
65478;SHT31;53678;39.642;22.430;2022-11-02T08:50:21;19.67;58.21
65478;SHT31;53678;39.642;22.430;2022-11-02T08:52:47;19.79;57.10
65478;SHT31;53678;39.642;22.430;2022-11-02T08:55:13;19.96;56.61
65478;SHT31;53678;39.642;22.430;2022-11-02T08:57:49;20.13;56.46
65478;SHT31;53678;39.642;22.430;2022-11-02T09:00:21;20.20;55.94
65478;SHT31;53678;39.642;22.430;2022-11-02T09:03:16;20.29;55.69
65478;SHT31;53678;39.642;22.430;2022-11-02T09:05:45;20.30;55.46
65478;SHT31;53678;39.642;22.430;2022-11-02T09:08:14;20.22;55.24
65478;SHT31;53678;39.642;22.430;2022-11-02T09:10:42;20.29;55.59
65478;SHT31;53678;39.642;22.430;2022-11-02T09:13:11;20.47;55.41
65478;SHT31;53678;39.642;22.430;2022-11-02T09:15:38;20.51;55.29
65478;SHT31;53678;39.642;22.430;2022-11-02T09:18:05;20.80;54.38
65478;SHT31;53678;39.642;22.430;2022-11-02T09:20:32;20.64;54.54
65478;SHT31;53678;39.642;22.430;2022-11-02T09:22:58;20.26;55.40
65478;SHT31;53678;39.642;22.430;2022-11-02T09:25:24;20.20;55.90
65478;SHT31;53678;39.642;22.430;2022-11-02T09:27:54;20.22;55.85
65478;SHT31;53678;39.642;22.430;2022-11-02T09:30:22;20.12;55.83
65478;SHT31;53678;39.642;22.430;2022-11-02T09:32:55;20.29;56.18
65478;SHT31;53678;39.642;22.430;2022-11-02T09:35:22;20.55;55.16
65478;SHT31;53678;39.642;22.430;2022-11-02T09:37:48;20.60;54.28
65478;SHT31;53678;39.642;22.430;2022-11-02T09:40:26;20.58;55.09
65478;SHT31;53678;39.642;22.430;2022-11-02T09:45:24;20.44;55.03
65478;SHT31;53678;39.642;22.430;2022-11-02T09:47:56;20.55;54.93
65478;SHT31;53678;39.642;22.430;2022-11-02T09:50:28;20.41;55.23
65478;SHT31;53678;39.642;22.430;2022-11-02T09:53:01;20.55;54.91
65478;SHT31;53678;39.642;22.430;2022-11-02T09:55:35;20.64;55.24
65478;SHT31;53678;39.642;22.430;2022-11-02T09:58:06;20.96;54.23
65478;SHT31;53678;39.642;22.430;2022-11-02T10:00:39;21.21;53.57
65478;SHT31;53678;39.642;22.430;2022-11-02T10:06:13;21.26;53.07
65478;SHT31;53678;39.642;22.430;2022-11-02T10:12:13;21.43;52.67
65478;SHT31;53678;39.642;22.430;2022-11-02T10:14:52;21.19;53.30
65478;SHT31;53678;39.642;22.430;2022-11-02T10:17:26;21.25;53.40
65478;SHT31;53678;39.642;22.430;2022-11-02T10:20:00;21.19;53.37
65478;SHT31;53678;39.642;22.430;2022-11-02T10:22:32;21.23;53.30
65478;SHT31;53678;39.642;22.430;2022-11-02T10:25:03;21.47;52.82
65478;SHT31;53678;39.642;22.430;2022-11-02T10:27:33;21.50;52.91
65478;SHT31;53678;39.642;22.430;2022-11-02T10:32:59;21.64;52.00
65478;SHT31;53678;39.642;22.430;2022-11-02T10:41:28;22.14;51.39
65478;SHT31;53678;39.642;22.430;2022-11-02T10:46:56;22.12;51.10
65478;SHT31;53678;39.642;22.430;2022-11-02T10:49:38;22.21;51.11
65478;SHT31;53678;39.642;22.430;2022-11-02T10:52:13;22.15;50.63
65478;SHT31;53678;39.642;22.430;2022-11-02T10:54:40;22.21;50.82
65478;SHT31;53678;39.642;22.430;2022-11-02T10:57:13;22.07;50.97
65478;SHT31;53678;39.642;22.430;2022-11-02T10:59:43;22.35;50.52
65478;SHT31;53678;39.642;22.430;2022-11-02T11:02:13;22.27;50.78
65478;SHT31;53678;39.642;22.430;2022-11-02T11:04:40;22.29;50.84
65478;SHT31;53678;39.642;22.430;2022-11-02T11:07:16;22.39;50.78
65478;SHT31;53678;39.642;22.430;2022-11-02T11:12:22;22.32;50.19
65478;SHT31;53678;39.642;22.430;2022-11-02T11:14:54;22.47;50.23
65478;SHT31;53678;39.642;22.430;2022-11-02T11:17:27;22.70;49.44
65478;SHT31;53678;39.642;22.430;2022-11-02T11:19:56;22.82;49.42
65478;SHT31;53678;39.642;22.430;2022-11-02T11:22:28;22.83;49.56
65478;SHT31;53678;39.642;22.430;2022-11-02T11:25:24;22.99;48.82
65478;SHT31;53678;39.642;22.430;2022-11-02T11:27:55;23.04;48.89
65478;SHT31;53678;39.642;22.430;2022-11-02T11:32:52;23.02;49.15
65478;SHT31;53678;39.642;22.430;2022-11-02T11:35:19;22.93;49.22
65478;SHT31;53678;39.642;22.430;2022-11-02T11:38:00;22.86;49.33
65478;SHT31;53678;39.642;22.430;2022-11-02T11:40:31;22.68;49.92
65478;SHT31;53678;39.642;22.430;2022-11-02T11:43:01;22.69;50.00
65478;SHT31;53678;39.642;22.430;2022-11-02T11:45:32;22.69;50.13
65478;SHT31;53678;39.642;22.430;2022-11-02T11:48:53;22.70;49.85
65478;SHT31;53678;39.642;22.430;2022-11-02T11:50:53;22.73;49.71
65478;SHT31;53678;39.642;22.430;2022-11-02T11:53:21;22.76;49.87
65478;SHT31;53678;39.642;22.430;2022-11-02T11:55:50;22.90;49.55
65478;SHT31;53678;39.642;22.430;2022-11-02T12:01:01;22.93;49.76
65478;SHT31;53678;39.642;22.430;2022-11-02T12:03:29;23.06;49.37
65478;SHT31;53678;39.642;22.430;2022-11-02T12:14:17;23.21;48.76
65478;SHT31;53678;39.642;22.430;2022-11-02T12:17:16;23.30;48.47
65478;SHT31;53678;39.642;22.430;2022-11-02T12:20:11;23.35;48.84
65478;SHT31;53678;39.642;22.430;2022-11-02T12:25:43;23.79;47.16
65478;SHT31;53678;39.642;22.430;2022-11-02T12:28:38;23.38;47.71
65478;SHT31;53678;39.642;22.430;2022-11-02T12:50:12;23.75;47.16
65478;SHT31;53678;39.642;22.430;2022-11-02T12:55:35;23.93;46.45
65478;SHT31;53678;39.642;22.430;2022-11-02T12:58:36;23.88;46.53
65478;SHT31;53678;39.642;22.430;2022-11-02T13:01:42;23.81;46.87
65478;SHT31;53678;39.642;22.430;2022-11-02T13:04:18;24.09;46.42
65478;SHT31;53678;39.642;22.430;2022-11-02T13:06:50;24.14;46.07
65478;SHT31;53678;39.642;22.430;2022-11-02T13:09:34;24.09;46.03
65478;SHT31;53678;39.642;22.430;2022-11-02T13:12:07;24.08;46.14
65478;SHT31;53678;39.642;22.430;2022-11-02T13:15:00;24.01;46.12
65478;SHT31;53678;39.642;22.430;2022-11-02T13:17:39;24.06;45.70
65478;SHT31;53678;39.642;22.430;2022-11-02T13:20:41;24.27;45.27
65478;SHT31;53678;39.642;22.430;2022-11-02T13:23:17;24.19;45.02
65478;SHT31;53678;39.642;22.430;2022-11-02T13:25:48;24.10;45.60
65478;SHT31;53678;39.642;22.430;2022-11-02T13:30:58;23.96;45.84
65478;SHT31;53678;39.642;22.430;2022-11-02T13:33:29;24.26;45.22
65478;SHT31;53678;39.642;22.430;2022-11-02T13:35:59;24.29;45.34
65478;SHT31;53678;39.642;22.430;2022-11-02T13:38:46;24.20;45.34
65478;SHT31;53678;39.642;22.430;2022-11-02T13:49:43;24.39;44.65
65478;SHT31;53678;39.642;22.430;2022-11-02T13:53:07;24.49;44.18
65478;SHT31;53678;39.642;22.430;2022-11-02T13:55:45;24.23;44.97
65478;SHT31;53678;39.642;22.430;2022-11-02T14:00:53;24.03;45.49
65478;SHT31;53678;39.642;22.430;2022-11-02T14:05:59;24.23;44.70
65478;SHT31;53678;39.642;22.430;2022-11-02T14:11:44;24.37;44.88
65478;SHT31;53678;39.642;22.430;2022-11-02T14:22:13;24.27;45.84
65478;SHT31;53678;39.642;22.430;2022-11-02T14:40:56;23.72;47.54
65478;SHT31;53678;39.642;22.430;2022-11-02T14:46:49;23.92;46.81
65478;SHT31;53678;39.642;22.430;2022-11-02T14:49:20;23.92;46.91
65478;SHT31;53678;39.642;22.430;2022-11-02T14:52:16;23.84;47.35
65478;SHT31;53678;39.642;22.430;2022-11-02T14:54:58;23.55;47.86
65478;SHT31;53678;39.642;22.430;2022-11-02T14:57:41;23.41;48.10
65478;SHT31;53678;39.642;22.430;2022-11-02T15:00:21;23.17;48.98
65478;SHT31;53678;39.642;22.430;2022-11-02T15:02:48;23.18;48.41
65478;SHT31;53678;39.642;22.430;2022-11-02T15:05:35;23.38;48.08
65478;SHT31;53678;39.642;22.430;2022-11-02T15:08:03;23.31;48.19
65478;SHT31;53678;39.642;22.430;2022-11-02T15:10:40;23.06;48.84
65478;SHT31;53678;39.642;22.430;2022-11-02T15:16:13;22.51;50.75
65478;SHT31;53678;39.642;22.430;2022-11-02T15:18:33;22.32;51.46
65478;SHT31;53678;39.642;22.430;2022-11-02T15:26:23;21.94;52.15
65478;SHT31;53678;39.642;22.430;2022-11-02T15:28:54;21.80;52.78
65478;SHT31;53678;39.642;22.430;2022-11-02T15:31:23;21.71;52.43
65478;SHT31;53678;39.642;22.430;2022-11-02T15:33:52;21.70;52.69
65478;SHT31;53678;39.642;22.430;2022-11-02T15:36:36;21.66;52.98
65478;SHT31;53678;39.642;22.430;2022-11-02T15:39:06;21.62;53.23
65478;SHT31;53678;39.642;22.430;2022-11-02T15:41:44;21.43;54.04
65478;SHT31;53678;39.642;22.430;2022-11-02T15:45:01;21.35;53.87
65478;SHT31;53678;39.642;22.430;2022-11-02T15:47:43;21.21;54.13
65478;SHT31;53678;39.642;22.430;2022-11-02T15:50:45;21.16;54.22
65478;SHT31;53678;39.642;22.430;2022-11-02T15:53:44;21.12;54.14
65478;SHT31;53678;39.642;22.430;2022-11-02T15:56:38;21.02;54.54
65478;SHT31;53678;39.642;22.430;2022-11-02T16:02:50;20.80;55.44
65478;SHT31;53678;39.642;22.430;2022-11-02T16:05:24;20.73;55.56
65478;SHT31;53678;39.642;22.430;2022-11-02T16:07:53;20.65;55.62
65478;SHT31;53678;39.642;22.430;2022-11-02T16:10:25;20.60;55.75
65478;SHT31;53678;39.642;22.430;2022-11-02T16:15:25;20.58;55.61
65478;SHT31;53678;39.642;22.430;2022-11-02T16:18:01;20.60;55.44
65478;SHT31;53678;39.642;22.430;2022-11-02T16:20:33;20.58;56.00
65478;SHT31;53678;39.642;22.430;2022-11-02T16:23:05;20.48;56.13
65478;SHT31;53678;39.642;22.430;2022-11-02T16:25:37;20.36;57.09
65478;SHT31;53678;39.642;22.430;2022-11-02T16:30:41;20.16;57.76
65478;SHT31;53678;39.642;22.430;2022-11-02T16:33:08;20.10;57.90
65478;SHT31;53678;39.642;22.430;2022-11-02T16:35:35;20.05;58.21
65478;SHT31;53678;39.642;22.430;2022-11-02T16:38:03;20.08;58.05
65478;SHT31;53678;39.642;22.430;2022-11-02T16:40:30;20.08;57.62
65478;SHT31;53678;39.642;22.430;2022-11-02T16:42:55;20.12;59.94
65478;SHT31;53678;39.642;22.430;2022-11-02T16:45:38;20.13;60.58
65478;SHT31;53678;39.642;22.430;2022-11-02T16:51:03;19.99;59.87
65478;SHT31;53678;39.642;22.430;2022-11-02T16:53:33;19.88;59.83
65478;SHT31;53678;39.642;22.430;2022-11-02T16:56:36;19.83;59.90
65478;SHT31;53678;39.642;22.430;2022-11-02T16:59:03;19.75;60.37
65478;SHT31;53678;39.642;22.430;2022-11-02T17:01:35;19.71;60.51
65478;SHT31;53678;39.642;22.430;2022-11-02T17:04:33;19.62;60.19
65478;SHT31;53678;39.642;22.430;2022-11-02T17:07:43;19.57;60.38
65478;SHT31;53678;39.642;22.430;2022-11-02T17:10:20;19.54;60.82
65478;SHT31;53678;39.642;22.430;2022-11-02T17:12:49;19.46;61.48
65478;SHT31;53678;39.642;22.430;2022-11-02T17:15:23;19.31;62.70
65478;SHT31;53678;39.642;22.430;2022-11-02T17:20:37;19.20;62.72
65478;SHT31;53678;39.642;22.430;2022-11-02T17:23:53;19.18;62.45
65478;SHT31;53678;39.642;22.430;2022-11-02T17:32:01;19.02;62.88
65478;SHT31;53678;39.642;22.430;2022-11-02T17:34:29;19.00;62.34
65478;SHT31;53678;39.642;22.430;2022-11-02T17:36:56;18.99;62.51
65478;SHT31;53678;39.642;22.430;2022-11-02T17:39:22;19.07;62.21
65478;SHT31;53678;39.642;22.430;2022-11-02T17:41:55;19.10;62.06
65478;SHT31;53678;39.642;22.430;2022-11-02T17:44:40;19.10;62.11
65478;SHT31;53678;39.642;22.430;2022-11-02T17:47:16;19.10;62.21
65478;SHT31;53678;39.642;22.430;2022-11-02T17:49:42;19.09;62.23
65478;SHT31;53678;39.642;22.430;2022-11-02T17:52:12;19.00;62.98
65478;SHT31;53678;39.642;22.430;2022-11-02T17:54:40;18.92;63.22
65478;SHT31;53678;39.642;22.430;2022-11-02T17:57:13;18.86;63.06
65478;SHT31;53678;39.642;22.430;2022-11-02T17:59:39;18.80;63.72
65478;SHT31;53678;39.642;22.430;2022-11-02T18:02:13;18.69;64.65
65478;SHT31;53678;39.642;22.430;2022-11-02T18:04:39;18.66;64.36
65478;SHT31;53678;39.642;22.430;2022-11-02T18:07:05;18.72;63.67
65478;SHT31;53678;39.642;22.430;2022-11-02T18:09:30;18.69;64.18
65478;SHT31;53678;39.642;22.430;2022-11-02T18:11:57;18.70;63.78
65478;SHT31;53678;39.642;22.430;2022-11-02T18:14:23;18.75;63.17
65478;SHT31;53678;39.642;22.430;2022-11-02T18:16:49;18.75;63.03
65478;SHT31;53678;39.642;22.430;2022-11-02T18:19:17;18.77;62.88
65478;SHT31;53678;39.642;22.430;2022-11-02T18:21:43;18.80;62.78
65478;SHT31;53678;39.642;22.430;2022-11-02T18:24:09;18.89;62.74
65478;SHT31;53678;39.642;22.430;2022-11-02T18:26:35;18.89;62.60
65478;SHT31;53678;39.642;22.430;2022-11-02T18:29:03;18.90;62.60